createdAt,value
2019-04-30T00:02:27.770Z,4.63
2019-04-30T00:04:55.393Z,5.07
2019-04-30T00:07:24.876Z,5.37
2019-04-30T00:09:57.479Z,7.30
2019-04-30T00:12:30.820Z,5.47
2019-04-30T00:14:57.950Z,6.43
2019-04-30T00:17:27.028Z,5.50
2019-04-30T00:19:59.808Z,5.63
2019-04-30T00:22:33.857Z,6.27
2019-04-30T00:24:57.214Z,5.30
2019-04-30T00:27:30.037Z,9.00
2019-04-30T00:30:00.311Z,5.43
2019-04-30T00:32:28.752Z,9.30
2019-04-30T00:34:57.907Z,7.83
2019-04-30T00:37:26.816Z,4.70
2019-04-30T00:39:55.957Z,5.83
2019-04-30T00:42:28.593Z,6.40
2019-04-30T00:44:59.710Z,5.90
2019-04-30T00:47:26.971Z,5.70
2019-04-30T00:49:58.892Z,5.30
2019-04-30T00:52:29.472Z,8.47
2019-04-30T00:55:00.341Z,5.27
2019-04-30T00:57:28.093Z,5.33
2019-04-30T00:59:57.401Z,5.60
2019-04-30T01:02:33.303Z,7.40
2019-04-30T01:05:05.196Z,6.63
2019-04-30T01:07:35.401Z,8.33
2019-04-30T01:10:05.174Z,5.57
2019-04-30T01:12:39.090Z,7.63
2019-04-30T01:15:06.392Z,5.93
2019-04-30T01:17:35.894Z,6.20
2019-04-30T01:20:05.658Z,8.30
2019-04-30T01:22:35.138Z,9.63
2019-04-30T01:25:11.768Z,7.17
2019-04-30T01:27:39.513Z,7.33
2019-04-30T01:30:08.671Z,7.43
2019-04-30T01:32:39.497Z,14.20
2019-04-30T01:35:08.934Z,8.00
2019-04-30T01:37:38.722Z,10.97
2019-04-30T01:40:13.554Z,8.80
2019-04-30T01:42:42.800Z,11.33
2019-04-30T01:45:09.901Z,8.33
2019-04-30T01:47:39.719Z,8.27
2019-04-30T01:50:09.259Z,9.07
2019-04-30T01:52:53.963Z,10.97
2019-04-30T01:55:34.419Z,9.00
2019-04-30T01:58:12.278Z,10.17
2019-04-30T02:00:49.795Z,11.30
2019-04-30T02:03:19.311Z,9.23
2019-04-30T02:05:49.835Z,10.37
2019-04-30T02:08:19.558Z,9.33
2019-04-30T02:10:51.292Z,10.53
2019-04-30T02:13:20.258Z,9.40
2019-04-30T02:15:49.454Z,10.83
2019-04-30T02:18:19.552Z,10.93
2019-04-30T02:20:49.647Z,10.47
2019-04-30T02:23:19.601Z,11.60
2019-04-30T02:25:49.334Z,11.10
2019-04-30T02:28:19.009Z,11.30
2019-04-30T02:30:50.536Z,10.63
2019-04-30T02:33:20.246Z,10.73
2019-04-30T02:36:11.378Z,11.20
2019-04-30T02:38:44.196Z,13.23
2019-04-30T02:41:13.503Z,11.83
2019-04-30T02:43:43.682Z,11.17
2019-04-30T02:46:14.187Z,12.13
2019-04-30T02:48:45.313Z,14.57
2019-04-30T02:51:15.691Z,12.30
2019-04-30T02:54:14.728Z,14.70
2019-04-30T02:56:45.889Z,11.77
2019-04-30T02:59:14.675Z,12.17
2019-04-30T03:01:43.648Z,12.70
2019-04-30T03:04:12.495Z,13.23
2019-04-30T03:06:41.311Z,14.77
2019-04-30T03:09:10.960Z,15.17
2019-04-30T03:12:00.199Z,13.33
2019-04-30T03:14:30.188Z,11.77
2019-04-30T03:17:11.319Z,11.60
2019-04-30T03:19:45.841Z,15.50
2019-04-30T03:22:20.423Z,14.93
2019-04-30T03:24:50.227Z,14.60
2019-04-30T03:27:20.703Z,16.57
2019-04-30T03:29:50.589Z,15.13
2019-04-30T03:32:22.203Z,16.70
2019-04-30T03:34:51.948Z,26.23
2019-04-30T03:37:21.082Z,21.83
2019-04-30T03:39:50.585Z,25.60
2019-04-30T03:42:19.987Z,26.40
2019-04-30T03:44:49.759Z,24.43
2019-04-30T03:47:20.243Z,29.07
2019-04-30T03:49:49.958Z,24.50
2019-04-30T03:52:19.871Z,28.63
2019-04-30T03:54:49.573Z,26.20
2019-04-30T03:57:20.533Z,26.97
2019-04-30T03:59:49.914Z,21.07
2019-04-30T04:02:27.032Z,21.67
2019-04-30T04:05:05.037Z,20.70
2019-04-30T04:08:09.596Z,18.90
2019-04-30T04:10:56.996Z,16.50
2019-04-30T04:13:26.458Z,16.17
2019-04-30T04:15:55.660Z,16.30
2019-04-30T04:18:25.170Z,19.50
2019-04-30T04:21:07.492Z,19.33
2019-04-30T04:23:24.701Z,53.53
2019-04-30T04:25:53.845Z,69.17
2019-04-30T04:28:43.568Z,64.20
2019-04-30T04:31:12.631Z,81.90
2019-04-30T04:33:42.017Z,67.97
2019-04-30T04:36:10.759Z,74.87
2019-04-30T04:38:40.377Z,55.17
2019-04-30T04:41:10.481Z,119.97
2019-04-30T04:43:40.180Z,70.97
2019-04-30T04:46:09.602Z,107.67
2019-04-30T04:48:39.532Z,62.03
2019-04-30T04:51:19.826Z,88.03
2019-04-30T04:53:40.415Z,88.60
2019-04-30T04:56:10.130Z,54.13
2019-04-30T04:58:40.230Z,91.90
2019-04-30T05:01:11.843Z,66.00
2019-04-30T05:03:40.268Z,54.00
2019-04-30T05:06:11.502Z,80.23
2019-04-30T05:08:40.022Z,88.53
2019-04-30T05:11:09.579Z,50.30
2019-04-30T05:13:39.336Z,35.83
2019-04-30T05:16:09.215Z,66.20
2019-04-30T05:18:39.135Z,36.97
2019-04-30T05:21:08.874Z,96.57
2019-04-30T05:23:40.245Z,58.17
2019-04-30T05:26:11.082Z,74.13
2019-04-30T05:28:40.570Z,54.40
2019-04-30T05:31:09.607Z,54.17
2019-04-30T05:33:39.044Z,48.93
2019-04-30T05:36:09.343Z,75.33
2019-04-30T05:38:39.161Z,82.53
2019-04-30T05:41:09.276Z,67.93
2019-04-30T05:43:38.823Z,49.07
2019-04-30T05:46:08.373Z,49.77
2019-04-30T05:48:39.722Z,37.80
2019-04-30T05:51:08.992Z,57.80
2019-04-30T05:53:39.387Z,56.03
2019-04-30T05:56:09.439Z,36.37
2019-04-30T05:58:39.771Z,56.90
2019-04-30T06:01:09.801Z,70.07
2019-04-30T06:03:39.067Z,45.17
2019-04-30T06:06:08.807Z,46.47
2019-04-30T06:08:49.081Z,50.80
2019-04-30T06:11:39.239Z,38.33
2019-04-30T06:14:28.669Z,63.60
2019-04-30T06:17:23.204Z,53.53
2019-04-30T06:19:52.839Z,40.97
2019-04-30T06:22:22.228Z,46.87
2019-04-30T06:24:51.646Z,50.47
2019-04-30T06:27:20.666Z,45.00
2019-04-30T06:29:49.623Z,44.23
2019-04-30T06:32:18.813Z,47.50
2019-04-30T06:34:49.817Z,43.17
2019-04-30T06:37:19.541Z,39.83
2019-04-30T06:39:50.044Z,49.87
2019-04-30T06:42:19.703Z,41.57
2019-04-30T06:44:49.583Z,48.97
2019-04-30T06:47:31.934Z,45.43
2019-04-30T06:49:50.059Z,48.33
2019-04-30T06:52:23.280Z,49.33
2019-04-30T06:54:50.029Z,46.80
2019-04-30T06:57:19.837Z,45.73
2019-04-30T06:59:51.331Z,47.67
2019-04-30T07:02:19.844Z,46.17
2019-04-30T07:04:49.408Z,42.50
2019-04-30T07:07:23.100Z,43.97
2019-04-30T07:10:00.489Z,41.60
2019-04-30T07:12:43.407Z,45.13
2019-04-30T07:15:13.765Z,42.83
2019-04-30T07:17:43.345Z,47.27
2019-04-30T07:20:12.291Z,39.87
2019-04-30T07:22:50.029Z,39.93
2019-04-30T07:25:13.007Z,40.17
2019-04-30T07:27:41.921Z,37.43
2019-04-30T07:30:10.988Z,39.90
2019-04-30T07:32:40.070Z,39.57
2019-04-30T07:35:09.636Z,40.50
2019-04-30T07:37:39.259Z,40.30
2019-04-30T07:40:09.538Z,41.90
2019-04-30T07:42:44.675Z,43.63
2019-04-30T07:45:09.849Z,42.37
2019-04-30T07:47:39.703Z,46.23
2019-04-30T07:50:10.772Z,45.07
2019-04-30T07:52:58.013Z,42.13
2019-04-30T07:55:10.505Z,43.37
2019-04-30T07:57:40.327Z,47.77
2019-04-30T08:00:10.213Z,45.60
2019-04-30T08:02:44.418Z,42.70
2019-04-30T08:05:20.052Z,46.10
2019-04-30T08:07:49.396Z,42.90
2019-04-30T08:10:18.852Z,40.70
2019-04-30T08:12:50.589Z,36.53
2019-04-30T08:15:19.789Z,36.87
2019-04-30T08:18:02.306Z,43.77
2019-04-30T08:20:19.854Z,47.00
2019-04-30T08:22:49.394Z,44.07
2019-04-30T08:25:21.522Z,38.17
2019-04-30T08:27:49.460Z,36.40
2019-04-30T08:30:26.054Z,27.67
2019-04-30T08:32:49.951Z,29.93
2019-04-30T08:35:19.713Z,28.63
2019-04-30T08:37:49.670Z,28.20
2019-04-30T08:40:19.279Z,24.73
2019-04-30T08:42:49.505Z,26.73
2019-04-30T08:45:19.714Z,28.27
2019-04-30T08:47:49.470Z,28.80
2019-04-30T08:50:20.071Z,30.47
2019-04-30T08:52:49.967Z,32.80
2019-04-30T08:55:22.225Z,30.23
2019-04-30T08:57:50.222Z,29.13
2019-04-30T09:00:19.666Z,24.90
2019-04-30T09:02:49.306Z,24.67
2019-04-30T09:05:23.976Z,24.00
2019-04-30T09:07:53.020Z,22.83
2019-04-30T09:10:22.157Z,26.03
2019-04-30T09:12:52.036Z,23.67
2019-04-30T09:15:21.029Z,24.07
2019-04-30T09:18:00.707Z,21.00
2019-04-30T09:20:21.194Z,19.50
2019-04-30T09:22:50.084Z,22.07
2019-04-30T09:25:19.550Z,19.73
2019-04-30T09:27:48.866Z,22.47
2019-04-30T09:30:18.846Z,21.63
2019-04-30T09:32:49.959Z,20.50
2019-04-30T09:35:19.648Z,19.97
2019-04-30T09:37:49.717Z,22.90
2019-04-30T09:40:21.214Z,18.40
2019-04-30T09:42:51.083Z,19.45
2019-04-30T09:45:20.265Z,20.23
2019-04-30T09:47:50.516Z,18.17
2019-04-30T09:50:19.660Z,18.47
2019-04-30T09:52:49.696Z,16.60
2019-04-30T09:55:19.413Z,18.40
2019-04-30T09:57:48.942Z,18.10
2019-04-30T10:00:19.479Z,18.93
2019-04-30T10:02:48.934Z,16.83
2019-04-30T10:05:19.301Z,18.87
2019-04-30T10:07:49.379Z,19.17
2019-04-30T10:10:21.831Z,17.03
2019-04-30T10:12:51.423Z,18.97
2019-04-30T10:15:39.808Z,17.00
2019-04-30T10:18:09.322Z,16.13
2019-04-30T10:20:43.567Z,17.97
2019-04-30T10:23:12.784Z,16.50
2019-04-30T10:25:41.735Z,16.40
2019-04-30T10:28:11.001Z,21.87
2019-04-30T10:30:40.018Z,19.43
2019-04-30T10:33:10.027Z,20.33
2019-04-30T10:35:39.291Z,16.17
2019-04-30T10:38:09.889Z,16.20
2019-04-30T10:40:39.110Z,18.70
2019-04-30T10:43:08.962Z,17.40
2019-04-30T10:45:39.067Z,15.97
2019-04-30T10:48:08.159Z,17.60
2019-04-30T10:50:40.786Z,16.93
2019-04-30T10:53:09.170Z,16.73
2019-04-30T10:55:38.818Z,17.20
2019-04-30T10:58:08.018Z,16.67
2019-04-30T11:00:39.014Z,16.40
2019-04-30T11:03:19.116Z,17.33
2019-04-30T11:05:41.241Z,17.53
2019-04-30T11:08:10.361Z,15.13
2019-04-30T11:10:40.079Z,16.40
2019-04-30T11:13:09.016Z,17.37
2019-04-30T11:15:39.447Z,17.93
2019-04-30T11:18:08.917Z,15.33
2019-04-30T11:20:39.706Z,16.20
2019-04-30T11:23:14.514Z,16.37
2019-04-30T11:25:41.210Z,16.00
2019-04-30T11:28:11.240Z,15.40
2019-04-30T11:30:40.673Z,15.57
2019-04-30T11:33:10.283Z,18.77
2019-04-30T11:35:39.771Z,15.03
2019-04-30T11:38:10.096Z,14.47
2019-04-30T11:40:39.984Z,15.77
2019-04-30T11:43:09.191Z,17.53
2019-04-30T11:46:14.142Z,16.50
2019-04-30T11:48:43.252Z,19.67
2019-04-30T11:51:12.331Z,15.13
2019-04-30T11:53:41.356Z,15.50
2019-04-30T11:56:10.714Z,15.43
2019-04-30T11:58:39.450Z,17.40
2019-04-30T12:01:12.176Z,15.37
2019-04-30T12:03:41.400Z,15.37
2019-04-30T12:06:10.699Z,18.57
2019-04-30T12:08:56.397Z,15.43
2019-04-30T12:11:30.834Z,18.83
2019-04-30T12:13:59.788Z,18.43
2019-04-30T12:16:28.991Z,16.03
2019-04-30T12:18:59.032Z,17.50
2019-04-30T12:21:29.751Z,17.50
2019-04-30T12:23:58.908Z,17.73
2019-04-30T12:26:28.891Z,16.07
2019-04-30T12:28:58.060Z,16.67
2019-04-30T12:31:27.181Z,18.07
2019-04-30T12:33:57.553Z,19.33
2019-04-30T12:36:26.605Z,19.10
2019-04-30T12:38:55.617Z,18.73
2019-04-30T12:41:24.821Z,18.90
2019-04-30T12:43:54.012Z,17.80
2019-04-30T12:46:22.799Z,19.80
2019-04-30T12:49:19.554Z,19.53
2019-04-30T12:51:53.505Z,20.00
2019-04-30T12:54:44.473Z,18.57
2019-04-30T12:57:21.164Z,18.93
2019-04-30T12:59:50.175Z,20.73
2019-04-30T13:02:19.284Z,20.17
2019-04-30T13:04:49.260Z,21.20
2019-04-30T13:07:20.601Z,21.40
2019-04-30T13:09:50.527Z,20.37
2019-04-30T13:12:20.315Z,21.47
2019-04-30T13:14:53.940Z,24.67
2019-04-30T13:17:20.310Z,20.73
2019-04-30T13:19:49.319Z,20.13
2019-04-30T13:22:18.970Z,20.37
2019-04-30T13:24:49.825Z,28.07
2019-04-30T13:27:19.598Z,23.53
2019-04-30T13:30:04.437Z,23.03
2019-04-30T13:32:39.484Z,25.10
2019-04-30T13:35:09.290Z,22.20
2019-04-30T13:37:50.462Z,21.87
2019-04-30T13:40:38.946Z,26.90
2019-04-30T13:43:08.206Z,22.40
2019-04-30T13:45:38.727Z,25.00
2019-04-30T13:48:08.914Z,21.47
2019-04-30T13:50:39.125Z,21.90
2019-04-30T13:53:09.001Z,27.33
2019-04-30T13:55:45.700Z,22.40
2019-04-30T13:58:09.464Z,20.70
2019-04-30T14:00:39.726Z,27.13
2019-04-30T14:03:19.114Z,21.60
2019-04-30T14:05:49.101Z,22.03
2019-04-30T14:08:38.824Z,25.07
2019-04-30T14:11:09.140Z,29.20
2019-04-30T14:13:39.510Z,23.33
2019-04-30T14:16:09.265Z,26.67
2019-04-30T14:18:39.015Z,25.97
2019-04-30T14:21:09.312Z,26.53
2019-04-30T14:23:39.633Z,33.40
2019-04-30T14:26:09.399Z,25.90
2019-04-30T14:28:39.228Z,24.27
2019-04-30T14:31:08.114Z,26.47
2019-04-30T14:33:37.474Z,25.33
2019-04-30T14:36:24.972Z,28.57
2019-04-30T14:38:54.390Z,25.83
2019-04-30T14:41:24.007Z,25.77
2019-04-30T14:43:59.855Z,24.80
2019-04-30T14:46:53.689Z,22.93
2019-04-30T14:49:34.330Z,27.27
2019-04-30T14:52:03.675Z,25.47
2019-04-30T14:54:45.909Z,21.87
2019-04-30T14:57:34.144Z,23.83
2019-04-30T15:00:20.854Z,22.90
2019-04-30T15:02:55.458Z,23.60
2019-04-30T15:05:24.880Z,23.50
2019-04-30T15:07:54.177Z,27.60
2019-04-30T15:10:26.117Z,23.90
2019-04-30T15:12:55.550Z,23.63
2019-04-30T15:15:24.532Z,26.80
2019-04-30T15:17:53.915Z,22.63
2019-04-30T15:20:22.864Z,26.77
2019-04-30T15:23:09.118Z,22.93
2019-04-30T15:25:38.799Z,22.80
2019-04-30T15:28:09.725Z,28.87
2019-04-30T15:30:39.172Z,28.03
2019-04-30T15:33:20.734Z,24.47
2019-04-30T15:35:50.339Z,26.10
2019-04-30T15:38:21.093Z,30.40
2019-04-30T15:40:49.879Z,26.50
2019-04-30T15:43:19.119Z,24.57
2019-04-30T15:45:49.357Z,28.20
2019-04-30T15:48:19.664Z,25.97
2019-04-30T15:50:49.307Z,33.27
2019-04-30T15:53:19.351Z,29.57
2019-04-30T15:55:48.491Z,28.30
2019-04-30T15:58:23.902Z,31.03
2019-04-30T16:00:53.099Z,25.37
2019-04-30T16:03:26.318Z,28.60
2019-04-30T16:05:55.538Z,26.90
2019-04-30T16:08:39.024Z,27.37
2019-04-30T16:11:22.296Z,30.03
2019-04-30T16:14:19.692Z,27.70
2019-04-30T16:16:58.176Z,31.10
2019-04-30T16:19:28.810Z,30.17
2019-04-30T16:21:58.548Z,34.27
2019-04-30T16:24:28.723Z,29.87
2019-04-30T16:26:59.314Z,29.83
2019-04-30T16:29:28.440Z,29.60
2019-04-30T16:31:59.215Z,31.97
2019-04-30T16:34:30.126Z,34.10
2019-04-30T16:36:59.961Z,30.43
2019-04-30T16:39:29.546Z,31.30
2019-04-30T16:41:59.130Z,27.87
2019-04-30T16:44:29.240Z,31.70
2019-04-30T16:46:59.653Z,30.55
2019-04-30T16:49:29.085Z,29.67
2019-04-30T16:51:59.044Z,31.47
2019-04-30T16:54:29.228Z,31.70
2019-04-30T16:57:04.306Z,33.13
2019-04-30T16:59:35.438Z,29.03
2019-04-30T17:02:04.411Z,27.43
2019-04-30T17:05:11.318Z,30.20
2019-04-30T17:08:03.709Z,34.00
2019-04-30T17:10:39.850Z,38.73
2019-04-30T17:13:28.950Z,28.77
2019-04-30T17:16:04.378Z,32.67
2019-04-30T17:18:33.473Z,31.77
2019-04-30T17:21:02.607Z,30.80
2019-04-30T17:23:31.774Z,33.13
2019-04-30T17:26:00.998Z,45.50
2019-04-30T17:28:29.776Z,35.57
2019-04-30T17:30:58.983Z,37.10
2019-04-30T17:33:27.920Z,37.00
2019-04-30T17:35:57.051Z,34.07
2019-04-30T17:38:25.954Z,35.93
2019-04-30T17:40:54.749Z,38.77
2019-04-30T17:43:24.458Z,35.83
2019-04-30T17:45:53.803Z,38.40
2019-04-30T17:48:22.715Z,35.33
2019-04-30T17:50:51.597Z,37.23
2019-04-30T17:53:21.310Z,34.83
2019-04-30T17:55:50.254Z,31.03
2019-04-30T17:58:20.679Z,35.40
2019-04-30T18:00:53.480Z,30.97
2019-04-30T18:03:22.542Z,33.23
2019-04-30T18:05:51.472Z,27.73
2019-04-30T18:08:21.145Z,29.43
2019-04-30T18:10:50.320Z,27.20
2019-04-30T18:13:19.674Z,27.77
2019-04-30T18:15:49.768Z,25.83
2019-04-30T18:18:33.794Z,25.33
2019-04-30T18:21:38.337Z,29.10
2019-04-30T18:24:22.034Z,25.87
2019-04-30T18:26:56.414Z,26.73
2019-04-30T18:29:25.504Z,25.03
2019-04-30T18:31:54.532Z,25.80
2019-04-30T18:34:23.898Z,26.90
2019-04-30T18:36:54.345Z,28.93
2019-04-30T18:39:23.412Z,28.93
2019-04-30T18:41:52.472Z,29.43
2019-04-30T18:44:21.243Z,22.93
2019-04-30T18:46:50.891Z,24.73
2019-04-30T18:49:19.743Z,24.37
2019-04-30T18:51:49.261Z,28.87
2019-04-30T18:54:18.401Z,28.67
2019-04-30T18:56:49.396Z,28.23
2019-04-30T18:59:19.613Z,26.43
2019-04-30T19:01:48.986Z,32.33
2019-04-30T19:04:18.923Z,26.73
2019-04-30T19:06:49.122Z,31.43
2019-04-30T19:09:37.269Z,30.70
2019-04-30T19:12:24.413Z,26.47
2019-04-30T19:15:18.774Z,27.83
2019-04-30T19:18:13.170Z,26.13
2019-04-30T19:20:44.853Z,28.53
2019-04-30T19:23:13.602Z,26.70
2019-04-30T19:25:43.059Z,28.40
2019-04-30T19:28:14.479Z,27.50
2019-04-30T19:30:55.066Z,26.67
2019-04-30T19:33:14.689Z,27.37
2019-04-30T19:35:44.493Z,26.00
2019-04-30T19:38:13.634Z,29.57
2019-04-30T19:40:42.408Z,25.47
2019-04-30T19:43:11.525Z,26.27
2019-04-30T19:45:40.332Z,25.87
2019-04-30T19:48:29.174Z,28.37
2019-04-30T19:50:59.105Z,27.77
2019-04-30T19:53:30.253Z,28.27
2019-04-30T19:55:58.912Z,30.03
2019-04-30T19:58:44.597Z,27.63
2019-04-30T20:00:59.469Z,24.83
2019-04-30T20:03:29.304Z,27.80
2019-04-30T20:05:58.719Z,26.97
2019-04-30T20:08:28.692Z,27.00
2019-04-30T20:10:59.290Z,28.20
2019-04-30T20:13:36.516Z,30.87
2019-04-30T20:15:59.534Z,39.40
2019-04-30T20:18:31.575Z,27.50
2019-04-30T20:21:02.552Z,29.07
2019-04-30T20:23:31.695Z,32.37
2019-04-30T20:26:00.735Z,28.40
2019-04-30T20:28:38.917Z,25.90
2019-04-30T20:31:00.337Z,27.37
2019-04-30T20:33:29.369Z,27.87
2019-04-30T20:35:59.015Z,41.33
2019-04-30T20:38:50.193Z,37.33
2019-04-30T20:41:19.142Z,27.63
2019-04-30T20:43:49.390Z,29.97
2019-04-30T20:46:31.125Z,26.47
2019-04-30T20:48:49.200Z,25.80
2019-04-30T20:51:19.654Z,35.87
2019-04-30T20:53:49.211Z,29.00
2019-04-30T20:56:21.491Z,34.43
2019-04-30T20:58:57.930Z,31.27
2019-04-30T21:01:24.751Z,39.50
2019-04-30T21:03:53.660Z,52.07
2019-04-30T21:06:22.570Z,47.83
2019-04-30T21:08:51.340Z,32.50
2019-04-30T21:11:20.438Z,36.63
2019-04-30T21:13:49.301Z,27.53
2019-04-30T21:16:18.212Z,32.23
2019-04-30T21:18:47.670Z,30.33
2019-04-30T21:21:18.612Z,32.83
2019-04-30T21:23:49.150Z,35.77
2019-04-30T21:26:19.618Z,36.93
2019-04-30T21:28:49.390Z,30.67
2019-04-30T21:31:37.028Z,33.47
2019-04-30T21:34:20.720Z,34.83
2019-04-30T21:36:50.221Z,36.67
2019-04-30T21:39:20.220Z,33.57
2019-04-30T21:41:49.740Z,32.03
2019-04-30T21:44:19.186Z,38.23
2019-04-30T21:46:48.202Z,35.53
2019-04-30T21:49:17.336Z,32.40
2019-04-30T21:51:46.206Z,33.60
2019-04-30T21:54:15.078Z,38.07
2019-04-30T21:56:44.195Z,37.23
2019-04-30T21:59:23.783Z,35.97
2019-04-30T22:01:43.587Z,40.83
2019-04-30T22:04:12.817Z,38.43
2019-04-30T22:06:42.281Z,40.50
2019-04-30T22:09:11.743Z,36.67
2019-04-30T22:11:40.778Z,31.77
2019-04-30T22:14:09.618Z,34.30
2019-04-30T22:16:39.828Z,35.13
2019-04-30T22:19:09.520Z,35.60
2019-04-30T22:21:39.591Z,36.93
2019-04-30T22:24:09.241Z,31.87
2019-04-30T22:26:39.028Z,37.93
2019-04-30T22:29:09.254Z,34.20
2019-04-30T22:31:39.625Z,31.93
2019-04-30T22:34:08.964Z,34.83
2019-04-30T22:36:42.426Z,37.47
2019-04-30T22:39:39.658Z,35.50
2019-04-30T22:42:34.987Z,31.63
2019-04-30T22:45:07.328Z,32.60
2019-04-30T22:47:36.562Z,36.87
2019-04-30T22:50:07.611Z,33.93
2019-04-30T22:52:36.749Z,32.73
2019-04-30T22:55:05.984Z,32.47
2019-04-30T22:57:35.252Z,32.07
2019-04-30T23:00:05.075Z,30.90
2019-04-30T23:02:47.307Z,32.63
2019-04-30T23:05:17.038Z,28.70
2019-04-30T23:07:45.849Z,34.77
2019-04-30T23:10:17.019Z,30.83
2019-04-30T23:12:46.085Z,32.30
2019-04-30T23:15:16.872Z,31.00
2019-04-30T23:17:46.597Z,30.17
2019-04-30T23:20:16.023Z,29.73
2019-04-30T23:22:45.181Z,29.33
2019-04-30T23:25:14.683Z,33.10
2019-04-30T23:27:43.814Z,30.57
2019-04-30T23:30:13.594Z,34.30
2019-04-30T23:32:42.537Z,33.77
2019-04-30T23:35:12.495Z,29.40
2019-04-30T23:37:41.958Z,35.47
2019-04-30T23:40:24.766Z,30.87
2019-04-30T23:42:54.237Z,33.10
2019-04-30T23:45:23.633Z,34.40
2019-04-30T23:47:53.373Z,35.73
2019-04-30T23:50:22.483Z,34.20
2019-04-30T23:52:51.722Z,35.10
2019-04-30T23:55:20.866Z,34.60
2019-04-30T23:57:49.898Z,34.87
